Time;durP1;ratioP1;P1;durP2;ratioP2;P2;SDS_P1;SDS_P2;PMS_P1;PMS_P2;Temp;Humidity;BMP_temperature;BMP_pressure;BME280_temperature;BME280_humidity;BME280_pressure;Samples;Min_cycle;Max_cycle;Signal;HPM_P1;HPM_P2
2022/01/08 00:01:11;;;;;;;6.25;3.95;;;17.10;41.80;;;;;;5017755;28;20206;-71
2022/01/08 00:03:38;;;;;;;5.88;3.50;;;17.00;41.80;;;;;;5035455;28;20246;-71
2022/01/08 00:06:05;;;;;;;6.88;3.58;;;17.00;41.90;;;;;;5017965;28;20203;-70
2022/01/08 00:08:32;;;;;;;6.45;3.70;;;17.00;41.90;;;;;;5017584;28;20219;-69
2022/01/08 00:11:01;;;;;;;4.78;3.40;;;17.00;41.90;;;;;;5017750;28;20238;-69
2022/01/08 00:13:28;;;;;;;5.00;3.47;;;16.90;42.00;;;;;;5018149;28;20200;-70
2022/01/08 00:15:55;;;;;;;4.40;3.00;;;16.90;41.90;;;;;;5018392;28;20207;-71
2022/01/08 00:18:23;;;;;;;3.65;3.10;;;16.90;42.10;;;;;;5017501;28;20224;-68
2022/01/08 00:20:50;;;;;;;4.45;3.20;;;16.90;42.70;;;;;;5035466;28;20196;-70
2022/01/08 00:23:18;;;;;;;4.68;3.30;;;16.80;42.10;;;;;;5017339;28;20248;-70
2022/01/08 00:25:45;;;;;;;3.45;2.95;;;16.80;42.00;;;;;;5017345;28;20549;-70
2022/01/08 00:28:14;;;;;;;5.00;3.20;;;16.80;42.20;;;;;;5017250;28;20238;-69
2022/01/08 00:30:41;;;;;;;3.97;3.13;;;16.80;42.30;;;;;;5034901;28;20271;-70
2022/01/08 00:33:09;;;;;;;3.58;2.83;;;16.80;42.30;;;;;;5017129;28;20192;-70
2022/01/08 00:35:36;;;;;;;4.45;2.88;;;16.70;42.30;;;;;;5017128;28;20207;-72
2022/01/08 00:38:03;;;;;;;3.95;2.92;;;16.70;42.50;;;;;;5034815;28;20603;-68
2022/01/08 00:40:30;;;;;;;3.28;2.75;;;16.70;42.40;;;;;;5034468;28;20203;-72
2022/01/08 00:42:57;;;;;;;3.70;2.60;;;16.70;42.40;;;;;;5016700;28;20223;-70
2022/01/08 00:45:25;;;;;;;4.70;3.30;;;16.70;42.50;;;;;;5034336;28;20192;-68
2022/01/08 00:47:52;;;;;;;5.45;2.83;;;16.70;42.50;;;;;;5034751;28;20208;-72
2022/01/08 00:50:21;;;;;;;4.22;2.65;;;16.60;42.40;;;;;;5017169;28;20665;-70
2022/01/08 00:52:48;;;;;;;4.18;2.90;;;16.60;43.00;;;;;;5016813;28;20207;-70
2022/01/08 00:55:16;;;;;;;3.97;2.90;;;16.60;42.40;;;;;;5016629;28;20203;-70
2022/01/08 00:57:43;;;;;;;3.72;3.03;;;16.60;42.50;;;;;;5034454;28;20212;-69
2022/01/08 01:00:12;;;;;;;4.20;2.97;;;16.60;42.20;;;;;;5016520;28;20196;-70
2022/01/08 01:02:40;;;;;;;4.65;3.42;;;16.60;42.30;;;;;;5016134;28;20300;-70
2022/01/08 01:05:08;;;;;;;3.75;3.05;;;16.60;42.20;;;;;;5016572;28;20200;-70
2022/01/08 01:07:35;;;;;;;3.85;3.05;;;16.60;42.20;;;;;;5034269;28;20211;-68
2022/01/08 01:10:03;;;;;;;4.00;3.60;;;16.60;42.20;;;;;;5016178;28;20196;-71
2022/01/08 01:12:30;;;;;;;3.38;2.85;;;16.60;42.20;;;;;;5033416;28;20287;-70
2022/01/08 01:14:57;;;;;;;3.35;2.88;;;16.60;42.30;;;;;;5034095;28;20196;-70
2022/01/08 01:17:24;;;;;;;3.40;2.80;;;16.50;42.20;;;;;;5016389;28;20295;-68
2022/01/08 01:19:53;;;;;;;4.20;2.83;;;16.60;42.40;;;;;;5016447;28;20204;-72
2022/01/08 01:22:24;;;;;;;3.35;2.80;;;16.50;42.30;;;;;;5016421;28;20192;-70
2022/01/08 01:24:59;;;;;;;4.20;3.03;;;16.50;42.10;;;;;;5015735;28;20235;-70
2022/01/08 01:27:56;;;;;;;3.95;2.80;;;16.50;42.20;;;;;;5015762;28;20222;-68
2022/01/08 01:30:38;;;;;;;3.00;2.63;;;16.50;42.20;;;;;;5016296;28;20261;-67
2022/01/08 01:41:29;;;;;;;3.65;2.90;;;16.50;42.10;;;;;;5015962;28;20199;-70
2022/01/08 01:47:03;;;;;;;3.30;2.50;;;16.40;42.30;;;;;;5016014;28;20192;-70
2022/01/08 01:49:31;;;;;;;3.38;2.58;;;16.40;42.30;;;;;;5015700;28;20206;-68
2022/01/08 01:52:00;;;;;;;2.83;2.53;;;16.50;42.50;;;;;;5015952;28;20224;-71
2022/01/08 01:54:27;;;;;;;3.33;2.47;;;16.50;42.60;;;;;;5016097;28;20560;-72
2022/01/08 01:56:55;;;;;;;2.60;2.40;;;16.40;42.60;;;;;;5015980;28;20270;-71
2022/01/08 01:59:22;;;;;;;2.75;2.45;;;16.40;42.80;;;;;;5033616;28;20241;-71
2022/01/08 02:01:50;;;;;;;2.90;2.40;;;16.40;42.60;;;;;;5015919;28;20210;-70
2022/01/08 02:04:17;;;;;;;3.22;2.38;;;16.40;42.80;;;;;;5015876;28;20216;-71
2022/01/08 02:06:44;;;;;;;2.97;2.25;;;16.40;42.90;;;;;;5015788;28;20722;-70
2022/01/08 02:09:13;;;;;;;2.53;2.25;;;16.40;42.80;;;;;;5033591;28;20659;-68
2022/01/08 02:11:56;;;;;;;2.20;2.10;;;16.40;42.80;;;;;;5015829;28;20204;-70
2022/01/08 02:14:23;;;;;;;3.05;2.40;;;16.40;42.90;;;;;;5015867;28;20214;-68
2022/01/08 02:16:50;;;;;;;2.80;2.50;;;16.40;42.80;;;;;;5016219;28;20563;-70
2022/01/08 02:19:17;;;;;;;3.53;2.45;;;16.40;42.90;;;;;;5015827;28;20223;-69
2022/01/08 02:21:49;;;;;;;2.30;2.10;;;16.40;42.90;;;;;;5015834;28;20204;-68
2022/01/08 02:24:16;;;;;;;2.38;2.17;;;16.40;42.90;;;;;;5016872;28;20299;-71
2022/01/08 02:26:43;;;;;;;2.20;2.10;;;16.40;42.90;;;;;;5020156;28;20222;-69
2022/01/08 02:29:11;;;;;;;2.97;2.42;;;16.30;42.80;;;;;;5019829;28;20199;-70
2022/01/08 02:31:39;;;;;;;2.83;2.33;;;16.30;42.80;;;;;;5019922;28;20207;-69
2022/01/08 02:34:06;;;;;;;2.55;2.28;;;16.30;42.80;;;;;;5019617;28;20219;-68
2022/01/08 02:36:33;;;;;;;2.40;2.20;;;16.30;42.80;;;;;;5037735;28;20188;-70
2022/01/08 02:39:02;;;;;;;2.40;2.20;;;16.30;43.40;;;;;;5019762;28;20327;-71
2022/01/08 02:41:29;;;;;;;2.40;2.20;;;16.30;42.80;;;;;;5019564;28;20203;-71
2022/01/08 02:43:57;;;;;;;2.85;2.15;;;16.20;42.80;;;;;;5019483;28;20292;-68
2022/01/08 02:46:24;;;;;;;3.15;2.47;;;16.30;42.80;;;;;;5019664;28;20621;-70
2022/01/08 02:48:51;;;;;;;2.92;2.63;;;16.30;42.90;;;;;;5019367;28;20219;-70
2022/01/08 02:51:18;;;;;;;2.53;2.20;;;16.20;42.80;;;;;;5019245;28;20334;-70
2022/01/08 02:53:45;;;;;;;2.60;2.22;;;16.30;42.80;;;;;;5036995;28;20184;-70
2022/01/08 02:56:14;;;;;;;3.10;2.35;;;16.20;42.80;;;;;;5019053;28;20282;-70
2022/01/08 02:58:41;;;;;;;2.67;2.10;;;16.20;42.80;;;;;;5037263;28;20216;-70
2022/01/08 03:01:08;;;;;;;2.30;2.00;;;16.20;42.90;;;;;;5026570;28;20196;-69
2022/01/08 03:03:35;;;;;;;2.67;2.47;;;16.20;42.80;;;;;;5028157;28;20306;-69
2022/01/08 03:06:02;;;;;;;2.30;2.08;;;16.20;42.80;;;;;;5041917;28;20188;-71
2022/01/08 03:08:29;;;;;;;3.78;2.20;;;16.20;42.80;;;;;;5054303;28;20212;-70
2022/01/08 03:10:57;;;;;;;2.33;2.13;;;16.20;42.80;;;;;;5032465;28;20286;-70
2022/01/08 03:13:26;;;;;;;2.20;2.00;;;16.20;43.50;;;;;;5025711;28;20614;-70
2022/01/08 03:15:53;;;;;;;2.05;1.80;;;16.20;42.80;;;;;;5020799;28;20200;-70
2022/01/08 03:18:21;;;;;;;2.08;1.98;;;16.20;43.00;;;;;;5038518;28;20251;-71
2022/01/08 03:21:00;;;;;;;2.28;2.00;;;16.20;42.90;;;;;;5021162;28;20581;-70
2022/01/08 03:23:36;;;;;;;2.15;1.95;;;16.20;43.00;;;;;;5022662;28;20199;-72
2022/01/08 03:26:03;;;;;;;2.35;1.90;;;16.20;43.00;;;;;;5020752;28;20207;-72
2022/01/08 03:28:32;;;;;;;2.42;2.10;;;16.10;42.90;;;;;;5038226;28;20212;-70
2022/01/08 03:30:59;;;;;;;2.25;2.00;;;16.20;42.80;;;;;;5019949;28;20196;-70
2022/01/08 03:33:26;;;;;;;2.20;2.00;;;16.10;44.10;;;;;;5020046;28;20295;-68
2022/01/08 03:35:53;;;;;;;2.15;1.85;;;16.10;43.20;;;;;;5019181;28;20660;-69
2022/01/08 03:38:20;;;;;;;2.47;2.05;;;16.10;43.90;;;;;;5019771;28;20713;-69
2022/01/08 03:40:48;;;;;;;2.22;2.03;;;16.10;43.20;;;;;;5020292;28;20207;-70
2022/01/08 03:43:15;;;;;;;2.22;2.03;;;16.20;43.50;;;;;;5040077;28;20248;-70
2022/01/08 03:45:43;;;;;;;2.00;1.85;;;16.10;43.20;;;;;;5039182;28;20208;-70
2022/01/08 03:48:27;;;;;;;2.05;1.77;;;16.10;43.30;;;;;;5019314;28;20250;-71
2022/01/08 03:50:54;;;;;;;2.20;1.90;;;16.10;43.10;;;;;;5019499;28;20192;-70
2022/01/08 03:53:21;;;;;;;2.17;1.98;;;16.10;43.90;;;;;;5019070;28;20565;-72
2022/01/08 03:55:48;;;;;;;2.13;1.80;;;16.10;43.80;;;;;;5021071;28;20196;-70
2022/01/08 03:58:16;;;;;;;2.55;1.95;;;16.20;43.60;;;;;;5018997;28;20311;-69
2022/01/08 04:00:44;;;;;;;2.40;2.13;;;16.10;43.60;;;;;;5018439;28;20283;-71
2022/01/08 04:03:11;;;;;;;2.10;1.90;;;16.20;43.60;;;;;;5036665;28;20192;-71
2022/01/08 04:05:39;;;;;;;1.98;1.88;;;16.20;43.40;;;;;;5018570;28;20216;-72
2022/01/08 04:08:06;;;;;;;2.30;2.00;;;16.20;43.50;;;;;;5036185;28;20290;-72
2022/01/08 04:10:33;;;;;;;2.17;1.83;;;16.20;43.40;;;;;;5035904;28;20203;-72
2022/01/08 04:13:08;;;;;;;1.88;1.70;;;16.20;43.20;;;;;;5036165;28;20193;-70
2022/01/08 04:15:38;;;;;;;2.15;1.90;;;16.10;43.20;;;;;;5036088;28;20342;-72
2022/01/08 04:18:07;;;;;;;1.83;1.67;;;16.20;43.40;;;;;;5034657;28;20232;-71
2022/01/08 04:20:39;;;;;;;1.98;1.88;;;16.20;43.20;;;;;;5018125;28;20206;-71
2022/01/08 04:23:06;;;;;;;1.80;1.70;;;16.20;43.70;;;;;;5018105;28;20196;-70
2022/01/08 04:25:33;;;;;;;2.33;1.98;;;16.20;43.40;;;;;;5018189;28;20212;-72
2022/01/08 04:28:01;;;;;;;2.10;1.90;;;16.20;43.20;;;;;;5018106;28;20239;-70
2022/01/08 04:30:28;;;;;;;1.90;1.70;;;16.20;43.20;;;;;;5018046;28;20573;-68
2022/01/08 04:32:55;;;;;;;1.73;1.63;;;16.30;43.60;;;;;;5035453;28;20289;-70
2022/01/08 04:35:24;;;;;;;2.00;1.90;;;16.30;43.90;;;;;;5017644;28;20206;-70
2022/01/08 04:37:51;;;;;;;2.33;1.83;;;16.30;42.80;;;;;;5017966;28;20228;-68
2022/01/08 04:40:18;;;;;;;2.15;1.77;;;16.30;42.80;;;;;;5017812;28;20232;-71
2022/01/08 04:42:46;;;;;;;2.03;1.90;;;16.30;43.30;;;;;;5017645;28;20702;-70
2022/01/08 04:45:13;;;;;;;2.08;1.83;;;16.30;42.80;;;;;;5035075;28;20204;-70
2022/01/08 04:47:41;;;;;;;1.70;1.60;;;16.30;42.80;;;;;;5016306;28;20299;-71
2022/01/08 04:50:12;;;;;;;1.90;1.80;;;16.40;42.90;;;;;;5017267;28;20200;-71
2022/01/08 04:52:40;;;;;;;1.80;1.70;;;16.40;42.90;;;;;;5035047;28;20181;-70
2022/01/08 04:55:09;;;;;;;1.90;1.70;;;16.40;42.90;;;;;;5017228;28;20196;-70
2022/01/08 04:57:36;;;;;;;1.60;1.50;;;16.40;42.90;;;;;;5033603;28;20227;-72
2022/01/08 05:00:04;;;;;;;1.70;1.60;;;16.40;43.00;;;;;;5017390;28;20272;-68
2022/01/08 05:02:31;;;;;;;1.95;1.85;;;16.40;42.90;;;;;;5033424;28;20714;-68
2022/01/08 05:04:58;;;;;;;2.00;1.90;;;16.40;42.90;;;;;;5016898;28;20212;-70
2022/01/08 05:07:25;;;;;;;1.65;1.55;;;16.40;42.90;;;;;;5017177;28;20636;-72
2022/01/08 05:09:54;;;;;;;1.77;1.67;;;16.40;42.90;;;;;;5017136;28;20200;-72
2022/01/08 05:12:21;;;;;;;1.60;1.50;;;16.40;43.00;;;;;;5016800;28;20306;-70
2022/01/08 05:14:48;;;;;;;1.80;1.70;;;16.50;43.10;;;;;;5016877;28;20196;-70
2022/01/08 05:17:15;;;;;;;1.65;1.55;;;16.40;43.00;;;;;;5033963;28;20267;-70
2022/01/08 05:19:45;;;;;;;1.90;1.67;;;16.40;43.70;;;;;;5016575;28;20192;-71
2022/01/08 05:22:21;;;;;;;1.98;1.88;;;16.50;43.00;;;;;;5016504;28;20212;-69
2022/01/08 05:24:49;;;;;;;1.70;1.60;;;16.50;43.00;;;;;;5034115;28;20298;-72
2022/01/08 05:27:17;;;;;;;1.75;1.65;;;16.50;42.90;;;;;;5016730;28;20248;-68
2022/01/08 05:29:45;;;;;;;1.80;1.70;;;16.60;43.00;;;;;;5017080;28;20223;-69
2022/01/08 05:32:16;;;;;;;2.30;1.50;;;16.60;42.90;;;;;;5016353;28;20203;-70
2022/01/08 05:34:44;;;;;;;1.60;1.50;;;16.60;42.90;;;;;;5016497;28;20192;-70
2022/01/08 05:37:11;;;;;;;1.70;1.60;;;16.60;42.60;;;;;;5016577;28;20322;-72
2022/01/08 05:39:38;;;;;;;1.55;1.45;;;16.60;42.60;;;;;;5017197;28;20219;-68
2022/01/08 05:42:05;;;;;;;2.03;1.92;;;16.70;42.80;;;;;;5039264;28;20203;-70
2022/01/08 05:44:34;;;;;;;1.70;1.60;;;16.70;42.80;;;;;;5021569;28;20223;-68
2022/01/08 05:47:01;;;;;;;1.67;1.58;;;16.70;42.70;;;;;;5017130;28;20212;-68
2022/01/08 05:49:28;;;;;;;1.70;1.60;;;16.80;42.90;;;;;;5034571;28;20722;-68
2022/01/08 05:51:55;;;;;;;1.80;1.67;;;16.70;42.70;;;;;;5017541;28;20207;-68
2022/01/08 05:54:22;;;;;;;1.98;1.80;;;16.80;43.20;;;;;;5016601;28;20294;-69
2022/01/08 05:56:50;;;;;;;2.05;1.70;;;16.80;42.80;;;;;;5033873;28;20199;-68
2022/01/08 05:59:18;;;;;;;2.08;1.40;;;16.90;43.00;;;;;;5033757;28;20242;-68
2022/01/08 06:01:47;;;;;;;1.50;1.40;;;16.90;43.00;;;;;;5016023;28;20195;-69
2022/01/08 06:04:13;;;;;;;1.60;1.50;;;16.90;43.10;;;;;;5033032;28;20208;-67
2022/01/08 06:06:40;;;;;;;1.70;1.60;;;16.90;43.00;;;;;;5034185;28;20191;-68
2022/01/08 06:09:07;;;;;;;1.63;1.52;;;17.00;42.90;;;;;;5033960;28;20216;-67
2022/01/08 06:11:34;;;;;;;1.70;1.50;;;17.00;43.50;;;;;;5016235;28;20206;-68
2022/01/08 06:14:02;;;;;;;1.50;1.40;;;17.00;42.60;;;;;;5015952;28;20204;-70
2022/01/08 06:16:35;;;;;;;1.50;1.40;;;17.00;43.40;;;;;;5016083;28;20192;-68
2022/01/08 06:19:07;;;;;;;2.22;1.40;;;17.00;42.70;;;;;;5015927;28;20286;-67
2022/01/08 06:21:34;;;;;;;1.80;1.55;;;17.10;42.70;;;;;;5015569;28;20206;-69
2022/01/08 06:24:01;;;;;;;2.33;1.48;;;17.00;43.00;;;;;;5015605;28;20234;-69
2022/01/08 06:26:28;;;;;;;1.85;1.65;;;17.10;42.30;;;;;;5015402;28;20220;-70
2022/01/08 06:28:55;;;;;;;2.28;1.42;;;17.10;42.60;;;;;;5015364;28;20212;-71
2022/01/08 06:31:23;;;;;;;2.75;1.50;;;17.10;43.00;;;;;;5015287;28;20204;-67
2022/01/08 06:33:50;;;;;;;1.52;1.42;;;17.10;42.50;;;;;;5015296;28;20191;-69
2022/01/08 06:36:19;;;;;;;1.60;1.50;;;17.10;42.60;;;;;;5015638;28;20215;-69
2022/01/08 06:38:46;;;;;;;1.70;1.60;;;17.10;42.70;;;;;;5015466;28;20219;-70
2022/01/08 06:41:13;;;;;;;2.17;1.70;;;17.10;42.30;;;;;;5015337;28;20208;-68
2022/01/08 06:43:41;;;;;;;1.48;1.38;;;17.10;42.30;;;;;;5015243;28;20200;-69
2022/01/08 06:46:08;;;;;;;1.52;1.42;;;17.10;42.30;;;;;;5031488;28;20314;-70
2022/01/08 06:48:35;;;;;;;2.35;1.52;;;17.10;42.20;;;;;;5014996;28;20594;-68
2022/01/08 06:51:02;;;;;;;1.98;1.77;;;17.10;42.30;;;;;;5033407;28;20679;-68
2022/01/08 06:53:30;;;;;;;2.08;1.63;;;17.20;42.20;;;;;;5033249;28;20188;-70
2022/01/08 06:55:58;;;;;;;1.70;1.60;;;17.20;42.10;;;;;;5032233;28;20192;-70
2022/01/08 06:58:26;;;;;;;1.80;1.30;;;17.20;41.80;;;;;;5015599;28;20668;-66
2022/01/08 07:00:53;;;;;;;1.80;1.60;;;17.20;41.90;;;;;;5016132;28;20620;-68
2022/01/08 07:03:21;;;;;;;1.50;1.40;;;17.20;41.80;;;;;;5016339;28;20223;-70
2022/01/08 07:05:48;;;;;;;2.08;1.60;;;17.20;42.00;;;;;;5016105;28;20220;-68
2022/01/08 07:08:15;;;;;;;3.88;2.40;;;17.20;41.90;;;;;;5034424;28;20216;-66
2022/01/08 07:10:43;;;;;;;3.58;2.40;;;17.20;42.30;;;;;;5022067;28;20571;-70
2022/01/08 07:13:11;;;;;;;5.90;2.10;;;17.20;41.90;;;;;;5021399;28;20212;-68
2022/01/08 07:15:38;;;;;;;2.50;2.15;;;17.20;41.90;;;;;;5028563;28;20271;-68
2022/01/08 07:18:05;;;;;;;1.73;1.63;;;17.20;41.70;;;;;;5029419;28;20251;-71
2022/01/08 07:20:32;;;;;;;1.63;1.52;;;17.20;41.80;;;;;;5024209;28;20200;-70
2022/01/08 07:23:00;;;;;;;1.63;1.50;;;17.20;41.70;;;;;;5020068;28;20200;-70
2022/01/08 07:25:27;;;;;;;1.70;1.58;;;17.20;41.70;;;;;;5036777;28;20212;-67
2022/01/08 07:27:55;;;;;;;1.90;1.60;;;17.20;42.30;;;;;;5018833;28;20220;-67
2022/01/08 07:30:22;;;;;;;2.15;1.58;;;17.20;41.70;;;;;;5019060;28;20192;-70
2022/01/08 07:32:51;;;;;;;1.83;1.40;;;17.20;41.60;;;;;;5018752;28;20202;-69
2022/01/08 07:35:21;;;;;;;1.92;1.80;;;17.20;41.70;;;;;;5037759;28;20191;-68
2022/01/08 07:37:49;;;;;;;2.25;1.52;;;17.20;41.60;;;;;;5037070;28;20215;-68
2022/01/08 07:40:16;;;;;;;3.53;2.00;;;17.20;41.60;;;;;;5019038;28;20219;-67
2022/01/08 07:42:43;;;;;;;2.00;1.50;;;17.20;41.70;;;;;;5019581;28;20219;-68
2022/01/08 07:45:12;;;;;;;2.35;1.52;;;17.20;41.60;;;;;;5020036;28;20264;-70
2022/01/08 07:47:39;;;;;;;1.58;1.48;;;17.20;41.60;;;;;;5021035;28;20299;-70
2022/01/08 07:50:07;;;;;;;1.77;1.50;;;17.30;41.70;;;;;;5019746;28;20283;-67
2022/01/08 07:52:34;;;;;;;1.65;1.55;;;17.30;41.60;;;;;;5019428;28;20230;-68
2022/01/08 07:55:02;;;;;;;2.85;1.50;;;17.30;41.60;;;;;;5036928;28;20192;-68
2022/01/08 07:57:29;;;;;;;1.75;1.52;;;17.30;41.60;;;;;;5018803;28;20223;-66
2022/01/08 07:59:56;;;;;;;1.98;1.58;;;17.20;41.50;;;;;;5018742;28;20208;-70
2022/01/08 08:02:24;;;;;;;1.65;1.55;;;17.30;41.60;;;;;;5018630;28;20573;-67
2022/01/08 08:04:52;;;;;;;2.08;1.48;;;17.30;41.60;;;;;;5034795;28;20204;-70
2022/01/08 08:07:28;;;;;;;1.98;1.67;;;17.30;41.50;;;;;;5017938;28;20224;-68
2022/01/08 08:09:55;;;;;;;1.88;1.63;;;17.30;41.50;;;;;;5018077;28;20215;-68
2022/01/08 08:12:23;;;;;;;3.20;1.70;;;17.40;41.60;;;;;;5018035;28;20211;-68
2022/01/08 08:14:50;;;;;;;2.25;1.80;;;17.30;41.50;;;;;;5018149;28;20254;-68
2022/01/08 08:17:18;;;;;;;2.58;1.92;;;17.30;41.30;;;;;;5017890;28;20599;-68
2022/01/08 08:19:46;;;;;;;3.78;2.05;;;17.30;41.60;;;;;;5035735;28;20195;-70
2022/01/08 08:22:13;;;;;;;3.60;1.80;;;17.30;41.60;;;;;;5017997;28;20197;-70
2022/01/08 08:24:41;;;;;;;3.92;2.10;;;17.30;41.60;;;;;;5035470;28;20254;-69
2022/01/08 08:27:08;;;;;;;2.53;2.05;;;17.30;41.60;;;;;;5017859;28;20220;-69
2022/01/08 08:29:38;;;;;;;5.68;2.22;;;17.40;41.80;;;;;;5017843;28;20251;-68
2022/01/08 08:32:06;;;;;;;4.78;2.20;;;17.40;41.80;;;;;;5036160;28;20192;-69
2022/01/08 08:34:33;;;;;;;2.63;2.08;;;17.40;41.70;;;;;;5035387;28;20196;-66
2022/01/08 08:37:01;;;;;;;2.08;1.90;;;17.40;41.50;;;;;;5017704;28;20203;-68
2022/01/08 08:39:28;;;;;;;2.70;1.83;;;17.40;41.50;;;;;;5017546;28;20246;-70
2022/01/08 08:41:56;;;;;;;2.92;2.05;;;17.40;41.40;;;;;;5017537;28;20200;-68
2022/01/08 08:44:23;;;;;;;3.65;1.90;;;17.40;41.50;;;;;;5035281;28;20668;-68
2022/01/08 08:46:50;;;;;;;1.83;1.60;;;17.40;41.50;;;;;;5017170;28;20594;-68
2022/01/08 08:49:17;;;;;;;1.90;1.65;;;17.40;41.40;;;;;;5016968;28;20668;-70
2022/01/08 08:51:45;;;;;;;3.50;1.92;;;17.40;41.20;;;;;;5035093;28;20192;-67
2022/01/08 08:54:13;;;;;;;3.58;1.77;;;17.50;48.20;;;;;;5034732;28;20197;-70
2022/01/08 08:56:43;;;;;;;2.60;1.80;;;17.50;46.10;;;;;;5016907;28;20192;-70
2022/01/08 08:59:10;;;;;;;2.20;1.55;;;17.50;45.40;;;;;;5016548;28;20551;-68
2022/01/08 09:01:37;;;;;;;2.10;1.52;;;17.50;44.70;;;;;;5016678;28;20206;-68
2022/01/08 09:04:05;;;;;;;3.47;1.60;;;17.50;44.50;;;;;;5034268;28;20192;-68
2022/01/08 09:06:32;;;;;;;1.70;1.60;;;17.60;44.00;;;;;;5016525;28;20708;-68
2022/01/08 09:08:59;;;;;;;1.90;1.55;;;17.60;43.80;;;;;;5016472;28;20718;-68
2022/01/08 09:11:28;;;;;;;2.72;1.60;;;17.70;43.80;;;;;;5016338;28;20204;-67
2022/01/08 09:13:55;;;;;;;2.15;1.48;;;17.70;43.50;;;;;;5016539;28;20691;-68
2022/01/08 09:16:22;;;;;;;2.42;1.70;;;17.70;43.10;;;;;;5016527;28;20591;-69
2022/01/08 09:18:50;;;;;;;1.88;1.65;;;17.70;42.90;;;;;;5016140;28;20224;-67
2022/01/08 09:21:17;;;;;;;2.63;1.70;;;17.70;42.80;;;;;;5016419;28;20193;-67
2022/01/08 09:23:44;;;;;;;2.58;1.60;;;17.70;42.40;;;;;;5015944;28;20227;-67
2022/01/08 09:26:11;;;;;;;2.10;1.80;;;17.70;41.90;;;;;;5015946;28;20345;-68
2022/01/08 09:28:40;;;;;;;1.67;1.50;;;17.70;41.70;;;;;;5033593;28;20623;-68
2022/01/08 09:31:08;;;;;;;2.70;1.73;;;17.70;41.70;;;;;;5015824;28;20634;-66
2022/01/08 09:33:35;;;;;;;1.50;1.40;;;17.70;41.70;;;;;;5033330;28;20560;-70
2022/01/08 09:36:03;;;;;;;2.55;1.60;;;17.70;41.40;;;;;;5016186;28;20219;-68
2022/01/08 09:38:31;;;;;;;2.60;1.42;;;17.70;41.30;;;;;;5016193;28;20227;-68
2022/01/08 09:40:58;;;;;;;1.75;1.35;;;17.80;41.40;;;;;;5016067;28;20195;-66
2022/01/08 09:43:25;;;;;;;1.50;1.40;;;17.70;41.20;;;;;;5015762;28;20647;-70
2022/01/08 09:45:54;;;;;;;2.83;1.50;;;17.80;41.20;;;;;;5015624;28;20223;-67
2022/01/08 09:48:21;;;;;;;1.50;1.40;;;17.80;41.60;;;;;;5016073;28;20224;-70
2022/01/08 09:50:48;;;;;;;1.83;1.65;;;17.80;40.80;;;;;;5015801;28;20263;-68
2022/01/08 09:53:15;;;;;;;1.73;1.50;;;17.90;40.90;;;;;;5033124;28;20227;-68
2022/01/08 09:55:45;;;;;;;2.80;1.50;;;17.90;40.80;;;;;;5015899;28;20188;-70
2022/01/08 09:58:13;;;;;;;1.65;1.50;;;17.90;40.60;;;;;;5015695;28;20325;-69
2022/01/08 10:00:40;;;;;;;1.70;1.60;;;17.90;40.70;;;;;;5015644;28;20196;-67
2022/01/08 10:03:16;;;;;;;1.60;1.50;;;17.90;40.40;;;;;;5015567;28;20268;-68
2022/01/08 10:05:47;;;;;;;2.33;1.52;;;17.90;40.30;;;;;;5032990;28;20694;-68
2022/01/08 10:08:15;;;;;;;1.73;1.60;;;18.00;40.60;;;;;;5031656;28;20220;-69
2022/01/08 10:10:55;;;;;;;1.50;1.40;;;18.00;40.20;;;;;;5015342;28;20259;-68
2022/01/08 10:13:22;;;;;;;2.08;1.50;;;18.00;40.20;;;;;;5015471;28;20208;-67
2022/01/08 10:18:36;;;;;;;2.17;1.70;;;18.00;40.20;;;;;;5015088;28;20746;-69
2022/01/08 10:21:16;;;;;;;2.30;1.65;;;18.00;40.20;;;;;;5015305;28;20682;-70
2022/01/08 10:23:43;;;;;;;1.60;1.50;;;18.00;40.20;;;;;;5015376;28;20219;-67
2022/01/08 10:26:11;;;;;;;1.70;1.60;;;18.00;40.10;;;;;;5015014;28;20220;-68
2022/01/08 10:28:41;;;;;;;1.70;1.50;;;18.00;40.20;;;;;;5015354;28;20219;-68
2022/01/08 10:31:19;;;;;;;2.00;1.60;;;18.00;40.00;;;;;;5015223;28;20196;-68
2022/01/08 10:33:50;;;;;;;2.47;1.50;;;18.00;40.10;;;;;;5015201;28;20282;-68
2022/01/08 10:36:25;;;;;;;1.83;1.40;;;18.00;40.10;;;;;;5015285;28;20190;-69
2022/01/08 10:38:54;;;;;;;2.03;1.70;;;18.10;40.00;;;;;;5014699;28;20219;-68
2022/01/08 10:41:21;;;;;;;1.77;1.40;;;18.10;40.10;;;;;;5032772;28;20196;-68
2022/01/08 10:43:49;;;;;;;1.70;1.60;;;18.10;40.00;;;;;;5015192;28;20290;-68
2022/01/08 10:46:17;;;;;;;1.73;1.63;;;18.10;40.00;;;;;;5017243;28;20226;-68
2022/01/08 10:48:45;;;;;;;1.77;1.30;;;18.20;39.80;;;;;;5019125;28;20307;-69
2022/01/08 10:51:16;;;;;;;1.63;1.40;;;18.10;39.80;;;;;;5036870;28;20192;-67
2022/01/08 10:53:54;;;;;;;2.20;1.50;;;18.20;39.80;;;;;;5018985;28;20202;-68
2022/01/08 10:56:23;;;;;;;2.60;1.60;;;18.10;39.80;;;;;;5036730;28;20183;-68
2022/01/08 10:58:55;;;;;;;1.60;1.50;;;18.20;39.90;;;;;;5019114;28;20561;-68
2022/01/08 11:01:43;;;;;;;2.78;1.70;;;18.20;39.50;;;;;;5036693;28;20180;-68
2022/01/08 11:04:11;;;;;;;1.60;1.50;;;18.20;39.80;;;;;;5018650;28;20196;-69
2022/01/08 11:06:51;;;;;;;1.58;1.48;;;18.20;39.70;;;;;;5018866;28;20636;-67
2022/01/08 11:09:18;;;;;;;1.88;1.50;;;18.20;39.60;;;;;;5019006;28;20199;-69
2022/01/08 11:11:45;;;;;;;1.50;1.40;;;18.20;39.50;;;;;;5018827;28;20231;-70
2022/01/08 11:14:22;;;;;;;1.40;1.30;;;18.20;39.30;;;;;;5018761;28;20203;-68
2022/01/08 11:16:51;;;;;;;2.22;1.60;;;18.20;39.40;;;;;;5018937;28;20516;-68
2022/01/08 11:19:18;;;;;;;1.60;1.50;;;18.20;39.40;;;;;;5047653;28;20177;-68
2022/01/08 11:21:45;;;;;;;1.90;1.60;;;18.20;39.30;;;;;;5032039;28;20206;-68
2022/01/08 11:24:14;;;;;;;1.65;1.55;;;18.20;39.40;;;;;;5025840;28;20254;-68
2022/01/08 11:26:42;;;;;;;1.73;1.63;;;18.20;39.30;;;;;;5018797;28;20692;-69
2022/01/08 11:29:09;;;;;;;1.77;1.50;;;18.20;39.10;;;;;;5035796;28;20192;-70
2022/01/08 11:31:36;;;;;;;1.83;1.60;;;18.30;39.30;;;;;;5019392;28;20224;-67
2022/01/08 11:34:08;;;;;;;1.52;1.42;;;18.30;39.40;;;;;;5018846;28;20203;-70
2022/01/08 11:36:35;;;;;;;2.13;1.60;;;18.30;39.40;;;;;;5018301;28;20199;-68
2022/01/08 11:39:02;;;;;;;2.10;1.30;;;18.30;39.40;;;;;;5018135;28;20245;-69
2022/01/08 11:41:30;;;;;;;1.50;1.40;;;18.30;39.20;;;;;;5036014;28;20195;-69
2022/01/08 11:43:57;;;;;;;2.17;1.58;;;18.30;39.30;;;;;;5034784;28;20541;-67
2022/01/08 11:46:28;;;;;;;1.67;1.40;;;18.30;39.10;;;;;;5018286;28;20266;-69
2022/01/08 11:48:55;;;;;;;2.45;1.70;;;18.40;39.40;;;;;;5018149;28;20770;-70
2022/01/08 11:51:23;;;;;;;2.65;1.40;;;18.30;39.20;;;;;;5035938;28;20192;-69
2022/01/08 11:53:51;;;;;;;1.83;1.50;;;18.30;39.10;;;;;;5035985;28;20745;-69
2022/01/08 11:56:23;;;;;;;1.42;1.33;;;18.40;39.10;;;;;;5017538;28;20203;-67
2022/01/08 11:59:04;;;;;;;1.98;1.50;;;18.40;39.10;;;;;;5018301;28;20245;-67
2022/01/08 12:01:32;;;;;;;1.90;1.40;;;18.40;39.20;;;;;;5018130;28;20544;-67
2022/01/08 12:03:59;;;;;;;1.88;1.50;;;18.40;39.00;;;;;;5018290;28;20660;-68
2022/01/08 12:06:38;;;;;;;2.15;1.52;;;18.40;39.00;;;;;;5018021;28;20251;-69
2022/01/08 12:09:19;;;;;;;1.50;1.40;;;18.50;39.20;;;;;;5017911;28;20244;-69
2022/01/08 12:11:55;;;;;;;1.38;1.27;;;18.50;39.00;;;;;;5035602;28;20494;-68
2022/01/08 12:14:24;;;;;;;1.48;1.38;;;18.50;39.00;;;;;;5017703;28;20200;-70
2022/01/08 12:16:51;;;;;;;1.70;1.60;;;18.50;38.90;;;;;;5017765;28;20192;-69
2022/01/08 12:19:32;;;;;;;2.05;1.70;;;18.50;39.50;;;;;;5017903;28;20552;-69
2022/01/08 12:22:00;;;;;;;2.53;1.60;;;18.60;39.00;;;;;;5035431;28;20180;-68
2022/01/08 12:24:34;;;;;;;1.75;1.40;;;18.60;38.80;;;;;;5035282;28;20192;-70
2022/01/08 12:27:02;;;;;;;1.45;1.35;;;18.60;38.80;;;;;;5017594;28;20211;-67
2022/01/08 12:29:37;;;;;;;1.50;1.40;;;18.60;39.30;;;;;;5017599;28;20197;-68
2022/01/08 12:32:28;;;;;;;1.60;1.48;;;18.60;39.00;;;;;;5017388;28;20625;-70
2022/01/08 12:35:02;;;;;;;1.65;1.55;;;18.60;39.00;;;;;;5017657;28;20200;-67
2022/01/08 12:37:37;;;;;;;1.33;1.23;;;18.60;38.70;;;;;;5017555;28;20216;-69
2022/01/08 12:40:05;;;;;;;2.65;1.45;;;18.70;38.80;;;;;;5017586;28;20199;-69
2022/01/08 12:42:43;;;;;;;1.60;1.50;;;18.70;38.60;;;;;;5033825;28;20300;-69
2022/01/08 12:45:18;;;;;;;1.83;1.60;;;18.70;38.50;;;;;;5033892;28;20616;-67
2022/01/08 12:47:51;;;;;;;1.83;1.58;;;18.60;38.70;;;;;;5035581;28;20279;-70
2022/01/08 12:50:29;;;;;;;1.63;1.40;;;18.70;38.80;;;;;;5018419;28;20251;-70
2022/01/08 12:53:17;;;;;;;3.75;1.40;;;18.70;38.50;;;;;;5017497;28;20196;-69
2022/01/08 12:56:03;;;;;;;1.50;1.40;;;18.60;38.10;;;;;;5019231;28;20283;-68
2022/01/08 12:58:31;;;;;;;2.72;1.50;;;18.60;38.80;;;;;;5017944;28;20215;-69
2022/01/08 13:01:01;;;;;;;1.50;1.40;;;18.60;39.00;;;;;;5033773;28;20658;-67
2022/01/08 13:03:29;;;;;;;2.28;1.58;;;18.60;39.00;;;;;;5017396;28;20721;-68
2022/01/08 13:05:58;;;;;;;2.45;1.60;;;18.60;39.10;;;;;;5033487;28;20204;-69
2022/01/08 13:08:25;;;;;;;1.60;1.50;;;18.60;39.00;;;;;;5017593;28;20223;-70
2022/01/08 13:10:56;;;;;;;1.58;1.48;;;18.60;40.10;;;;;;5034994;28;20214;-70